Terminal Aerodrome Forecast
Issued by NWS Burlington, VT

Current Version | Previous Version | Text Only | Print | Product List | Glossary On
Versions: 1 2 3 4 5 6 7 8 9 10 11 12 13 14
997
FTUS41 KBTV 302321
TAFBTV
TAF
KBTV 302321Z 3100/3124 VRB04KT P6SM BKN250
     FM311800 13007KT P6SM VCSH BKN120=

USA.gov is the U.S. government's official web portal to all federal, state and local government web resources and services.